RJCW/WKJ METAR and TAF weather

Enter ICAO airport designator
Station Type Date Time Source
RJCW METAR 2021/10/20 06:00 UTC NOAA

RJCW 200600Z 04023KT 7000 -SHRA FEW010 SCT012 BKN015 06/05 Q1008


Station Type Date Time Source
RJCW Decoded METAR 2021/10/20 06:00 UTC NOAA

Wakkanai Airport, Japan (RJCW) 45-24N 141-48E 11M
Oct 20, 2021 - 02:00 AM EDT / 2021.10.20 0600 UTC
Wind: from the NE (040 degrees) at 26 MPH (23 KT):0
Visibility: 4 mile(s):0
Sky conditions: mostly cloudy
Weather: light rain showers
Temperature: 42 F (6 C)
Dew Point: 41 F (5 C)
Relative Humidity: 93%
Pressure (altimeter): 29.77 in. Hg (1008 hPa)
ob: RJCW 200600Z 04023KT 7000 -SHRA FEW010 SCT012 BKN015 06/05 Q1008
cycle: 6

Station Type Date Time Source
RJCW TAF UTC NOAA

Error!

Example: see airport list